Time;durP1;ratioP1;P1;durP2;ratioP2;P2;SDS_P1;SDS_P2;PMS_P1;PMS_P2;Temp;Humidity;BMP_temperature;BMP_pressure;BME280_temperature;BME280_humidity;BME280_pressure;Samples;Min_cycle;Max_cycle;Signal;HPM_P1;HPM_P2
2023/09/06 00:01:24;;;;;;;;;;;;;;;;;;5113358;27;20314;-74
2023/09/06 00:03:50;;;;;;;;;;;;;;;;;;5125207;27;19954;-75
2023/09/06 00:06:16;;;;;;;;;;;;;;;;;;5124372;27;19919;-75
2023/09/06 00:08:42;;;;;;;;;;;;;;;;;;5117344;27;19919;-75
2023/09/06 00:11:08;;;;;;;;;;;;;;;;;;5118436;27;19920;-75
2023/09/06 00:13:34;;;;;;;;;;;;;;;;;;5113818;28;19973;-75
2023/09/06 00:16:00;;;;;;;;;;;;;;;;;;5117669;27;19919;-75
2023/09/06 00:18:27;;;;;;;;;;;;;;;;;;5113719;28;19919;-75
2023/09/06 00:20:53;;;;;;;;;;;;;;;;;;5103616;27;19926;-75
2023/09/06 00:23:20;;;;;;;;;;;;;;;;;;5107945;28;19919;-75
2023/09/06 00:25:46;;;;;;;;;;;;;;;;;;5117739;27;19919;-74
2023/09/06 00:28:13;;;;;;;;;;;;;;;;;;5130620;28;19926;-75
2023/09/06 00:30:38;;;;;;;;;;;;;;;;;;5128169;27;19926;-75
2023/09/06 00:33:05;;;;;;;;;;;;;;;;;;5128139;28;20006;-75
2023/09/06 00:35:32;;;;;;;;;;;;;;;;;;5127947;27;20005;-76
2023/09/06 00:38:00;;;;;;;;;;;;;;;;;;5123218;27;19967;-75
2023/09/06 00:40:26;;;;;;;;;;;;;;;;;;5126560;27;19919;-75
2023/09/06 00:42:52;;;;;;;;;;;;;;;;;;5126476;28;19942;-74
2023/09/06 00:45:23;;;;;;;;;;;;;;;;;;5114463;27;19919;-75
2023/09/06 00:47:49;;;;;;;;;;;;;;;;;;5114110;28;20374;-75
2023/09/06 00:50:15;;;;;;;;;;;;;;;;;;5127784;27;19918;-75
2023/09/06 00:52:41;;;;;;;;;;;;;;;;;;5126147;27;20264;-75
2023/09/06 00:55:07;;;;;;;;;;;;;;;;;;5124603;27;19919;-75
2023/09/06 00:57:33;;;;;;;;;;;;;;;;;;5115791;27;19930;-75
2023/09/06 00:59:59;;;;;;;;;;;;;;;;;;5137619;27;20005;-75
2023/09/06 01:02:25;;;;;;;;;;;;;;;;;;5121371;27;19930;-75
2023/09/06 01:04:51;;;;;;;;;;;;;;;;;;5117931;27;19919;-75
2023/09/06 01:07:17;;;;;;;;;;;;;;;;;;5138430;27;20022;-75
2023/09/06 01:09:43;;;;;;;;;;;;;;;;;;5118012;27;19923;-74
2023/09/06 01:12:09;;;;;;;;;;;;;;;;;;5138125;27;19923;-74
2023/09/06 01:14:38;;;;;;;;;;;;;;;;;;5137722;27;19972;-74
2023/09/06 01:17:04;;;;;;;;;;;;;;;;;;5138399;27;19979;-74
2023/09/06 01:19:30;;;;;;;;;;;;;;;;;;5138363;27;19923;-74
2023/09/06 01:21:58;;;;;;;;;;;;;;;;;;5122717;27;19963;-74
2023/09/06 01:24:24;;;;;;;;;;;;;;;;;;5100936;27;20370;-74
2023/09/06 01:26:50;;;;;;;;;;;;;;;;;;5126932;27;19923;-74
2023/09/06 01:29:16;;;;;;;;;;;;;;;;;;5119419;27;19926;-74
2023/09/06 01:31:42;;;;;;;;;;;;;;;;;;5131137;27;19919;-74
2023/09/06 01:34:08;;;;;;;;;;;;;;;;;;5127867;27;19977;-74
2023/09/06 01:36:34;;;;;;;;;;;;;;;;;;5117911;27;19927;-74
2023/09/06 01:39:00;;;;;;;;;;;;;;;;;;5100186;27;19930;-74
2023/09/06 01:41:26;;;;;;;;;;;;;;;;;;5117563;27;20006;-74
2023/09/06 01:43:54;;;;;;;;;;;;;;;;;;5099126;27;19923;-75
2023/09/06 01:46:20;;;;;;;;;;;;;;;;;;5127578;27;20384;-74
2023/09/06 01:48:46;;;;;;;;;;;;;;;;;;5129381;27;19920;-74
2023/09/06 01:51:15;;;;;;;;;;;;;;;;;;5128266;27;19966;-74
2023/09/06 01:53:41;;;;;;;;;;;;;;;;;;5120300;27;19926;-74
2023/09/06 01:56:07;;;;;;;;;;;;;;;;;;5102877;27;19919;-74
2023/09/06 01:58:33;;;;;;;;;;;;;;;;;;5116231;27;19919;-74
2023/09/06 02:01:00;;;;;;;;;;;;;;;;;;5124341;27;20312;-74
2023/09/06 02:03:29;;;;;;;;;;;;;;;;;;5128150;27;19919;-74
2023/09/06 02:05:55;;;;;;;;;;;;;;;;;;5098976;27;19958;-74
2023/09/06 02:08:21;;;;;;;;;;;;;;;;;;5117065;27;19978;-74
2023/09/06 02:10:47;;;;;;;;;;;;;;;;;;5117233;27;20052;-75
2023/09/06 02:13:13;;;;;;;;;;;;;;;;;;5115533;27;20541;-74
2023/09/06 02:15:39;;;;;;;;;;;;;;;;;;5117047;27;20360;-74
2023/09/06 02:18:05;;;;;;;;;;;;;;;;;;5130308;27;19935;-74
2023/09/06 02:20:30;;;;;;;;;;;;;;;;;;5133786;27;20022;-74
2023/09/06 02:22:56;;;;;;;;;;;;;;;;;;5131037;27;19919;-76
2023/09/06 02:25:23;;;;;;;;;;;;;;;;;;5120471;27;19966;-74
2023/09/06 02:27:49;;;;;;;;;;;;;;;;;;5136954;27;19919;-74
2023/09/06 02:30:15;;;;;;;;;;;;;;;;;;5119229;27;19926;-74
2023/09/06 02:32:41;;;;;;;;;;;;;;;;;;5136907;27;19919;-75
2023/09/06 02:35:07;;;;;;;;;;;;;;;;;;5119195;27;19925;-74
2023/09/06 02:37:33;;;;;;;;;;;;;;;;;;5134390;27;19925;-74
2023/09/06 02:39:59;;;;;;;;;;;;;;;;;;5111524;27;20277;-74
2023/09/06 02:42:26;;;;;;;;;;;;;;;;;;5115767;27;19969;-75
2023/09/06 02:44:53;;;;;;;;;;;;;;;;;;5129587;27;19919;-74
2023/09/06 02:47:25;;;;;;;;;;;;;;;;;;5116896;27;19962;-74
2023/09/06 02:49:55;;;;;;;;;;;;;;;;;;5116019;27;19942;-74
2023/09/06 02:52:21;;;;;;;;;;;;;;;;;;5118132;27;19919;-74
2023/09/06 02:54:47;;;;;;;;;;;;;;;;;;5136902;27;20019;-74
2023/09/06 02:57:16;;;;;;;;;;;;;;;;;;5135909;27;19919;-76
2023/09/06 02:59:42;;;;;;;;;;;;;;;;;;5136261;27;19926;-74
2023/09/06 03:02:08;;;;;;;;;;;;;;;;;;5136182;27;19919;-75
2023/09/06 03:04:37;;;;;;;;;;;;;;;;;;5117208;27;20398;-74
2023/09/06 03:07:07;;;;;;;;;;;;;;;;;;5119321;27;19919;-74
2023/09/06 03:09:35;;;;;;;;;;;;;;;;;;5101141;27;19919;-74
2023/09/06 03:12:07;;;;;;;;;;;;;;;;;;5124526;27;19923;-74
2023/09/06 03:14:33;;;;;;;;;;;;;;;;;;5134962;27;19998;-75
2023/09/06 03:17:08;;;;;;;;;;;;;;;;;;5125451;27;19950;-74
2023/09/06 03:19:36;;;;;;;;;;;;;;;;;;5124480;27;19950;-74
2023/09/06 03:22:06;;;;;;;;;;;;;;;;;;5132175;27;19926;-75
2023/09/06 03:24:32;;;;;;;;;;;;;;;;;;5116868;27;19964;-74
2023/09/06 03:26:58;;;;;;;;;;;;;;;;;;5115596;27;19923;-77
2023/09/06 03:29:24;;;;;;;;;;;;;;;;;;5113983;27;19919;-74
2023/09/06 03:31:53;;;;;;;;;;;;;;;;;;5115367;27;19924;-74
2023/09/06 03:34:19;;;;;;;;;;;;;;;;;;5126605;27;19919;-74
2023/09/06 03:36:55;;;;;;;;;;;;;;;;;;5115485;27;19923;-74
2023/09/06 03:39:21;;;;;;;;;;;;;;;;;;5134319;27;19923;-74
2023/09/06 03:41:48;;;;;;;;;;;;;;;;;;5135912;27;19919;-74
2023/09/06 03:44:16;;;;;;;;;;;;;;;;;;5134775;27;19919;-75
2023/09/06 03:46:41;;;;;;;;;;;;;;;;;;5111455;27;20026;-74
2023/09/06 03:49:08;;;;;;;;;;;;;;;;;;5097509;28;20373;-74
2023/09/06 03:51:36;;;;;;;;;;;;;;;;;;5098584;28;19970;-74
2023/09/06 03:54:06;;;;;;;;;;;;;;;;;;5114870;27;19920;-77
2023/09/06 03:56:32;;;;;;;;;;;;;;;;;;5115318;28;19919;-74
2023/09/06 03:59:00;;;;;;;;;;;;;;;;;;5130609;27;20256;-74
2023/09/06 04:01:26;;;;;;;;;;;;;;;;;;5117388;27;19972;-74
2023/09/06 04:03:53;;;;;;;;;;;;;;;;;;5135449;27;20426;-74
2023/09/06 04:06:19;;;;;;;;;;;;;;;;;;5117897;27;20325;-73
2023/09/06 04:08:45;;;;;;;;;;;;;;;;;;5113763;28;19972;-74
2023/09/06 04:11:11;;;;;;;;;;;;;;;;;;5131824;27;19919;-74
2023/09/06 04:13:37;;;;;;;;;;;;;;;;;;5134069;27;20356;-74
2023/09/06 04:16:05;;;;;;;;;;;;;;;;;;5118015;27;19926;-77
2023/09/06 04:18:31;;;;;;;;;;;;;;;;;;5118781;27;19919;-74
2023/09/06 04:20:59;;;;;;;;;;;;;;;;;;5118310;27;20015;-73
2023/09/06 04:23:25;;;;;;;;;;;;;;;;;;5132891;27;19919;-74
2023/09/06 04:25:51;;;;;;;;;;;;;;;;;;5132878;27;19918;-74
2023/09/06 04:28:20;;;;;;;;;;;;;;;;;;5138212;27;19930;-74
2023/09/06 04:30:46;;;;;;;;;;;;;;;;;;5139419;27;19918;-74
2023/09/06 04:33:15;;;;;;;;;;;;;;;;;;5137178;27;19942;-74
2023/09/06 04:35:44;;;;;;;;;;;;;;;;;;5118546;27;20018;-74
2023/09/06 04:38:11;;;;;;;;;;;;;;;;;;5125935;27;20376;-74
2023/09/06 04:40:38;;;;;;;;;;;;;;;;;;5118775;27;19926;-74
2023/09/06 04:43:03;;;;;;;;;;;;;;;;;;5134505;27;19919;-74
2023/09/06 04:45:29;;;;;;;;;;;;;;;;;;5138829;27;20295;-74
2023/09/06 04:47:56;;;;;;;;;;;;;;;;;;5139056;27;19919;-73
2023/09/06 04:50:22;;;;;;;;;;;;;;;;;;5121265;27;19919;-74
2023/09/06 04:52:48;;;;;;;;;;;;;;;;;;5139193;27;20412;-74
2023/09/06 04:55:14;;;;;;;;;;;;;;;;;;5138722;27;20409;-74
2023/09/06 04:57:40;;;;;;;;;;;;;;;;;;5135704;27;19923;-74
2023/09/06 05:00:17;;;;;;;;;;;;;;;;;;5121963;27;19968;-74
2023/09/06 05:02:43;;;;;;;;;;;;;;;;;;5101386;27;19930;-74
2023/09/06 05:05:09;;;;;;;;;;;;;;;;;;5117516;27;19927;-77
2023/09/06 05:07:35;;;;;;;;;;;;;;;;;;5130230;27;19919;-74
2023/09/06 05:10:03;;;;;;;;;;;;;;;;;;5130436;27;19920;-75
2023/09/06 05:12:29;;;;;;;;;;;;;;;;;;5100283;27;20247;-74
2023/09/06 05:14:55;;;;;;;;;;;;;;;;;;5117842;27;20364;-74
2023/09/06 05:17:21;;;;;;;;;;;;;;;;;;5135245;27;20371;-74
2023/09/06 05:19:47;;;;;;;;;;;;;;;;;;5137443;27;19923;-74
2023/09/06 05:22:13;;;;;;;;;;;;;;;;;;5120350;27;19959;-73
2023/09/06 05:24:39;;;;;;;;;;;;;;;;;;5136876;27;19919;-72
2023/09/06 05:27:05;;;;;;;;;;;;;;;;;;5138389;27;19925;-71
2023/09/06 05:29:32;;;;;;;;;;;;;;;;;;5136901;27;19926;-71
2023/09/06 05:31:58;;;;;;;;;;;;;;;;;;5121964;27;20403;-72
2023/09/06 05:34:24;;;;;;;;;;;;;;;;;;5136572;27;19963;-71
2023/09/06 05:36:51;;;;;;;;;;;;;;;;;;5128622;27;19927;-73
2023/09/06 05:39:20;;;;;;;;;;;;;;;;;;5128568;27;20068;-74
2023/09/06 05:41:46;;;;;;;;;;;;;;;;;;5133933;27;19919;-74
2023/09/06 05:44:12;;;;;;;;;;;;;;;;;;5140190;27;19919;-74
2023/09/06 05:46:38;;;;;;;;;;;;;;;;;;5129646;27;19920;-74
2023/09/06 05:49:08;;;;;;;;;;;;;;;;;;5142598;27;20394;-74
2023/09/06 05:51:34;;;;;;;;;;;;;;;;;;5123067;27;19927;-74
2023/09/06 05:54:00;;;;;;;;;;;;;;;;;;5136394;27;19923;-75
2023/09/06 05:56:28;;;;;;;;;;;;;;;;;;5123777;27;19965;-74
2023/09/06 05:58:54;;;;;;;;;;;;;;;;;;5122746;27;20340;-74
2023/09/06 06:01:21;;;;;;;;;;;;;;;;;;5118011;27;19926;-74
2023/09/06 06:03:47;;;;;;;;;;;;;;;;;;5119800;27;20171;-75
2023/09/06 06:06:16;;;;;;;;;;;;;;;;;;5135729;27;19999;-74
2023/09/06 06:08:42;;;;;;;;;;;;;;;;;;5110791;27;19926;-74
2023/09/06 06:11:08;;;;;;;;;;;;;;;;;;5118842;27;19923;-74
2023/09/06 06:13:34;;;;;;;;;;;;;;;;;;5101787;27;19977;-74
2023/09/06 06:16:00;;;;;;;;;;;;;;;;;;5114477;27;19972;-75
2023/09/06 06:18:26;;;;;;;;;;;;;;;;;;5134057;27;20380;-74
2023/09/06 06:20:52;;;;;;;;;;;;;;;;;;5108908;27;19970;-74
2023/09/06 06:23:18;;;;;;;;;;;;;;;;;;5126696;27;19941;-78
2023/09/06 06:25:44;;;;;;;;;;;;;;;;;;5126213;27;19962;-74
2023/09/06 06:28:10;;;;;;;;;;;;;;;;;;5132314;27;19930;-74
2023/09/06 06:30:36;;;;;;;;;;;;;;;;;;5130232;27;19920;-74
2023/09/06 06:33:02;;;;;;;;;;;;;;;;;;5132239;27;19980;-74
2023/09/06 06:35:28;;;;;;;;;;;;;;;;;;5130182;27;19963;-74
2023/09/06 06:37:55;;;;;;;;;;;;;;;;;;5136848;27;19918;-74
2023/09/06 06:40:22;;;;;;;;;;;;;;;;;;5125822;27;19920;-74
2023/09/06 06:42:48;;;;;;;;;;;;;;;;;;5133834;27;19998;-74
2023/09/06 06:45:14;;;;;;;;;;;;;;;;;;5110925;27;19957;-74
2023/09/06 06:47:40;;;;;;;;;;;;;;;;;;5117553;27;19923;-74
2023/09/06 06:50:06;;;;;;;;;;;;;;;;;;5106498;27;20320;-74
2023/09/06 06:52:33;;;;;;;;;;;;;;;;;;5113118;27;20012;-75
2023/09/06 06:54:59;;;;;;;;;;;;;;;;;;5122263;27;19919;-74
2023/09/06 06:57:25;;;;;;;;;;;;;;;;;;5117050;27;20465;-75
2023/09/06 06:59:51;;;;;;;;;;;;;;;;;;5132974;27;19919;-74
2023/09/06 07:02:17;;;;;;;;;;;;;;;;;;5130923;27;20295;-74
2023/09/06 07:04:43;;;;;;;;;;;;;;;;;;5098218;27;19936;-75
2023/09/06 07:07:10;;;;;;;;;;;;;;;;;;5129328;27;19926;-74
2023/09/06 07:09:36;;;;;;;;;;;;;;;;;;5119131;27;19925;-74
2023/09/06 07:12:02;;;;;;;;;;;;;;;;;;5109123;27;20006;-74
2023/09/06 07:14:28;;;;;;;;;;;;;;;;;;5124458;27;19979;-74
2023/09/06 07:16:54;;;;;;;;;;;;;;;;;;5127720;27;19923;-74
2023/09/06 07:19:20;;;;;;;;;;;;;;;;;;5119159;27;19919;-74
2023/09/06 07:21:46;;;;;;;;;;;;;;;;;;5121465;27;20379;-75
2023/09/06 07:24:13;;;;;;;;;;;;;;;;;;5128208;27;19919;-74
2023/09/06 07:26:40;;;;;;;;;;;;;;;;;;5119357;27;20101;-74
2023/09/06 07:29:06;;;;;;;;;;;;;;;;;;5114758;27;19919;-74
2023/09/06 07:31:32;;;;;;;;;;;;;;;;;;5131244;27;19970;-75
2023/09/06 07:33:58;;;;;;;;;;;;;;;;;;5135881;27;19926;-74
2023/09/06 07:36:24;;;;;;;;;;;;;;;;;;5136073;27;19919;-78
2023/09/06 07:38:54;;;;;;;;;;;;;;;;;;5135443;27;19923;-74
2023/09/06 07:41:20;;;;;;;;;;;;;;;;;;5114476;27;19930;-74
2023/09/06 07:43:46;;;;;;;;;;;;;;;;;;5118180;27;19915;-74
2023/09/06 07:46:12;;;;;;;;;;;;;;;;;;5127307;27;20368;-75
2023/09/06 07:48:38;;;;;;;;;;;;;;;;;;5117329;27;19919;-74
2023/09/06 07:51:04;;;;;;;;;;;;;;;;;;5133751;27;19979;-75
2023/09/06 07:53:30;;;;;;;;;;;;;;;;;;5120564;27;20031;-74
2023/09/06 07:55:56;;;;;;;;;;;;;;;;;;5129209;27;19926;-74
2023/09/06 07:58:22;;;;;;;;;;;;;;;;;;5134638;27;20027;-75
2023/09/06 08:00:48;;;;;;;;;;;;;;;;;;5131704;27;19919;-75
2023/09/06 08:03:14;;;;;;;;;;;;;;;;;;5135362;27;19925;-75
2023/09/06 08:05:40;;;;;;;;;;;;;;;;;;5120100;27;20334;-75
2023/09/06 08:08:06;;;;;;;;;;;;;;;;;;5120857;28;19919;-75
2023/09/06 08:10:32;;;;;;;;;;;;;;;;;;5115321;27;20387;-75
2023/09/06 08:12:58;;;;;;;;;;;;;;;;;;5134443;27;20328;-75
2023/09/06 08:15:24;;;;;;;;;;;;;;;;;;5133518;27;19961;-75
2023/09/06 08:17:51;;;;;;;;;;;;;;;;;;5119084;28;20014;-75
2023/09/06 08:20:17;;;;;;;;;;;;;;;;;;5103285;27;20507;-75
2023/09/06 08:22:44;;;;;;;;;;;;;;;;;;5109967;27;20005;-75
2023/09/06 08:25:12;;;;;;;;;;;;;;;;;;5105015;27;19974;-75
2023/09/06 08:27:38;;;;;;;;;;;;;;;;;;5114144;27;20014;-75
2023/09/06 08:30:04;;;;;;;;;;;;;;;;;;5134190;27;20009;-75
2023/09/06 08:32:30;;;;;;;;;;;;;;;;;;5133438;27;19933;-77
2023/09/06 08:34:56;;;;;;;;;;;;;;;;;;5127268;27;19919;-75
2023/09/06 08:37:22;;;;;;;;;;;;;;;;;;5114581;27;19972;-74
2023/09/06 08:39:48;;;;;;;;;;;;;;;;;;5133729;27;19954;-74
2023/09/06 08:42:14;;;;;;;;;;;;;;;;;;5130228;27;19980;-75
2023/09/06 08:44:40;;;;;;;;;;;;;;;;;;5113168;28;20420;-75
2023/09/06 08:47:06;;;;;;;;;;;;;;;;;;5110270;27;20363;-75
2023/09/06 08:49:32;;;;;;;;;;;;;;;;;;5114179;28;20291;-79
2023/09/06 08:51:58;;;;;;;;;;;;;;;;;;5110254;27;19919;-75
2023/09/06 08:54:24;;;;;;;;;;;;;;;;;;5135133;27;20347;-75
2023/09/06 08:56:50;;;;;;;;;;;;;;;;;;5120861;27;20382;-74
2023/09/06 08:59:15;;;;;;;;;;;;;;;;;;5133191;27;20290;-76
2023/09/06 09:01:41;;;;;;;;;;;;;;;;;;5122559;27;19984;-75
2023/09/06 09:04:09;;;;;;;;;;;;;;;;;;5104009;28;19919;-75
2023/09/06 09:06:35;;;;;;;;;;;;;;;;;;5127379;27;19923;-78
2023/09/06 09:09:01;;;;;;;;;;;;;;;;;;5123281;27;19973;-75
2023/09/06 09:11:28;;;;;;;;;;;;;;;;;;5134799;27;19977;-74
2023/09/06 09:13:54;;;;;;;;;;;;;;;;;;5137007;27;19983;-75
2023/09/06 09:16:22;;;;;;;;;;;;;;;;;;5128303;27;19929;-74
2023/09/06 09:18:49;;;;;;;;;;;;;;;;;;5130805;27;19919;-74
2023/09/06 09:21:15;;;;;;;;;;;;;;;;;;5131475;27;20309;-76
2023/09/06 09:23:41;;;;;;;;;;;;;;;;;;5107767;27;19920;-74
2023/09/06 09:26:07;;;;;;;;;;;;;;;;;;5131495;27;20386;-74
2023/09/06 09:28:33;;;;;;;;;;;;;;;;;;5116569;27;20352;-75
2023/09/06 09:30:59;;;;;;;;;;;;;;;;;;5117348;27;20015;-75
2023/09/06 09:33:25;;;;;;;;;;;;;;;;;;5137847;27;19940;-74
2023/09/06 09:35:51;;;;;;;;;;;;;;;;;;5131123;27;19994;-75
2023/09/06 09:38:17;;;;;;;;;;;;;;;;;;5137746;27;19925;-74
2023/09/06 09:40:43;;;;;;;;;;;;;;;;;;5137465;27;20439;-75
2023/09/06 09:43:09;;;;;;;;;;;;;;;;;;5135062;27;20040;-74
2023/09/06 09:45:35;;;;;;;;;;;;;;;;;;5116744;27;19919;-74
2023/09/06 09:48:01;;;;;;;;;;;;;;;;;;5117323;27;20375;-74
2023/09/06 09:50:29;;;;;;;;;;;;;;;;;;5103162;27;20338;-72
2023/09/06 09:52:55;;;;;;;;;;;;;;;;;;5137582;27;19919;-75
2023/09/06 09:55:21;;;;;;;;;;;;;;;;;;5120829;27;20362;-72
2023/09/06 09:57:47;;;;;;;;;;;;;;;;;;5141351;27;20322;-71
2023/09/06 10:00:17;;;;;;;;;;;;;;;;;;5117316;27;20029;-70
2023/09/06 10:02:43;;;;;;;;;;;;;;;;;;5154856;27;19970;-72
2023/09/06 10:05:12;;;;;;;;;;;;;;;;;;5135782;27;19965;-73
2023/09/06 10:07:37;;;;;;;;;;;;;;;;;;5112138;27;19919;-72
2023/09/06 10:10:05;;;;;;;;;;;;;;;;;;5120941;27;19919;-72
2023/09/06 10:12:31;;;;;;;;;;;;;;;;;;5137254;27;19931;-72
2023/09/06 10:14:57;;;;;;;;;;;;;;;;;;5136723;27;20384;-72
2023/09/06 10:17:23;;;;;;;;;;;;;;;;;;5156216;27;19926;-71
2023/09/06 10:19:49;;;;;;;;;;;;;;;;;;5133267;27;19923;-72
2023/09/06 10:22:15;;;;;;;;;;;;;;;;;;5119732;27;19926;-71
2023/09/06 10:24:43;;;;;;;;;;;;;;;;;;5136060;27;20411;-70
2023/09/06 10:27:09;;;;;;;;;;;;;;;;;;5155346;27;19987;-71
2023/09/06 10:29:35;;;;;;;;;;;;;;;;;;5154881;27;20367;-78
2023/09/06 10:32:03;;;;;;;;;;;;;;;;;;5103571;27;19919;-79
2023/09/06 10:34:29;;;;;;;;;;;;;;;;;;5106845;27;19920;-79
2023/09/06 10:36:56;;;;;;;;;;;;;;;;;;5116085;27;19926;-80
2023/09/06 10:39:23;;;;;;;;;;;;;;;;;;5104407;27;20405;-71
2023/09/06 10:41:49;;;;;;;;;;;;;;;;;;5121156;27;19920;-71
2023/09/06 10:44:15;;;;;;;;;;;;;;;;;;5115501;27;20268;-72
2023/09/06 10:46:40;;;;;;;;;;;;;;;;;;5116666;27;19924;-71
2023/09/06 10:49:06;;;;;;;;;;;;;;;;;;5115592;27;19957;-71
2023/09/06 10:51:32;;;;;;;;;;;;;;;;;;5119132;27;19923;-73
2023/09/06 10:53:58;;;;;;;;;;;;;;;;;;5136388;27;19919;-72
2023/09/06 10:56:24;;;;;;;;;;;;;;;;;;5115748;27;19973;-77
2023/09/06 10:58:50;;;;;;;;;;;;;;;;;;5114315;27;19937;-76
2023/09/06 11:01:17;;;;;;;;;;;;;;;;;;5112805;27;20005;-76
2023/09/06 11:03:43;;;;;;;;;;;;;;;;;;5135994;27;20383;-73
2023/09/06 11:06:09;;;;;;;;;;;;;;;;;;5136201;27;19926;-77
2023/09/06 11:08:35;;;;;;;;;;;;;;;;;;5136289;27;19923;-72
2023/09/06 11:11:01;;;;;;;;;;;;;;;;;;5119039;27;20269;-73
2023/09/06 11:13:29;;;;;;;;;;;;;;;;;;5135169;27;19962;-74
2023/09/06 11:15:55;;;;;;;;;;;;;;;;;;5122519;27;19932;-75
2023/09/06 11:18:21;;;;;;;;;;;;;;;;;;5101688;27;19923;-74
2023/09/06 11:20:47;;;;;;;;;;;;;;;;;;5135884;27;19919;-73
2023/09/06 11:23:13;;;;;;;;;;;;;;;;;;5131655;27;19926;-74
2023/09/06 11:25:38;;;;;;;;;;;;;;;;;;5136172;27;19919;-74
2023/09/06 11:28:05;;;;;;;;;;;;;;;;;;5134337;27;19968;-74
2023/09/06 11:30:32;;;;;;;;;;;;;;;;;;5119251;27;19923;-74
2023/09/06 11:32:58;;;;;;;;;;;;;;;;;;5128672;27;19926;-74
2023/09/06 11:35:26;;;;;;;;;;;;;;;;;;5133046;27;19919;-74
2023/09/06 11:37:52;;;;;;;;;;;;;;;;;;5120644;27;19919;-81
2023/09/06 11:40:20;;;;;;;;;;;;;;;;;;5098620;27;19919;-76
2023/09/06 11:42:46;;;;;;;;;;;;;;;;;;5130233;27;19919;-75
2023/09/06 11:45:14;;;;;;;;;;;;;;;;;;5134262;27;19915;-74
2023/09/06 11:47:40;;;;;;;;;;;;;;;;;;5098649;27;19919;-75
2023/09/06 11:50:08;;;;;;;;;;;;;;;;;;5132661;27;19919;-73
2023/09/06 11:52:35;;;;;;;;;;;;;;;;;;5105448;28;20019;-75
2023/09/06 11:55:05;;;;;;;;;;;;;;;;;;5128146;27;19929;-77
2023/09/06 11:57:31;;;;;;;;;;;;;;;;;;5134776;27;19974;-75
2023/09/06 11:59:57;;;;;;;;;;;;;;;;;;5134081;27;20360;-76
2023/09/06 12:02:24;;;;;;;;;;;;;;;;;;5100294;27;19926;-76
2023/09/06 12:04:50;;;;;;;;;;;;;;;;;;5114628;27;20309;-76
2023/09/06 12:07:16;;;;;;;;;;;;;;;;;;5110088;28;19923;-76
2023/09/06 12:09:43;;;;;;;;;;;;;;;;;;5115208;28;19942;-76
2023/09/06 12:12:09;;;;;;;;;;;;;;;;;;5114437;28;20390;-77
2023/09/06 12:14:36;;;;;;;;;;;;;;;;;;5130260;27;19919;-76
2023/09/06 12:17:03;;;;;;;;;;;;;;;;;;5104637;28;19955;-76
2023/09/06 12:19:29;;;;;;;;;;;;;;;;;;5097838;28;20352;-76
2023/09/06 12:21:55;;;;;;;;;;;;;;;;;;5115025;28;19969;-76
2023/09/06 12:24:21;;;;;;;;;;;;;;;;;;5129802;27;20352;-76
2023/09/06 12:26:47;;;;;;;;;;;;;;;;;;5135303;27;20332;-76
2023/09/06 12:29:13;;;;;;;;;;;;;;;;;;5134207;27;19960;-76
2023/09/06 12:31:39;;;;;;;;;;;;;;;;;;5110042;27;20318;-76
2023/09/06 12:34:06;;;;;;;;;;;;;;;;;;5128989;28;19919;-76
2023/09/06 12:36:32;;;;;;;;;;;;;;;;;;5115140;28;19942;-76
2023/09/06 12:38:58;;;;;;;;;;;;;;;;;;5114690;28;20348;-79
2023/09/06 12:41:24;;;;;;;;;;;;;;;;;;5114877;28;19926;-76
2023/09/06 12:43:50;;;;;;;;;;;;;;;;;;5122958;27;19919;-76
2023/09/06 12:46:18;;;;;;;;;;;;;;;;;;5114333;28;19927;-76
2023/09/06 12:48:44;;;;;;;;;;;;;;;;;;5101386;27;19923;-76
2023/09/06 12:51:10;;;;;;;;;;;;;;;;;;5118210;27;20547;-76
2023/09/06 12:53:36;;;;;;;;;;;;;;;;;;5116261;27;19923;-77
2023/09/06 12:56:03;;;;;;;;;;;;;;;;;;5138939;27;20352;-76
2023/09/06 12:58:29;;;;;;;;;;;;;;;;;;5109014;27;19926;-76
2023/09/06 13:00:56;;;;;;;;;;;;;;;;;;5118634;27;19998;-76
2023/09/06 13:03:22;;;;;;;;;;;;;;;;;;5117654;27;20009;-76
2023/09/06 13:05:48;;;;;;;;;;;;;;;;;;5118105;27;19966;-76
2023/09/06 13:08:14;;;;;;;;;;;;;;;;;;5123077;27;19919;-76
2023/09/06 13:10:40;;;;;;;;;;;;;;;;;;5118485;27;19923;-76
2023/09/06 13:13:06;;;;;;;;;;;;;;;;;;5117407;27;19919;-76
2023/09/06 13:15:32;;;;;;;;;;;;;;;;;;5118329;27;20029;-76
2023/09/06 13:17:58;;;;;;;;;;;;;;;;;;5118478;27;19919;-76
2023/09/06 13:20:24;;;;;;;;;;;;;;;;;;5117027;27;19926;-75
2023/09/06 13:22:50;;;;;;;;;;;;;;;;;;5117864;27;20006;-76
2023/09/06 13:25:16;;;;;;;;;;;;;;;;;;5118820;27;19926;-75
2023/09/06 13:27:43;;;;;;;;;;;;;;;;;;5137158;27;19919;-76
2023/09/06 13:30:09;;;;;;;;;;;;;;;;;;5137193;27;19919;-76
2023/09/06 13:32:35;;;;;;;;;;;;;;;;;;5117618;27;19919;-75
2023/09/06 13:35:01;;;;;;;;;;;;;;;;;;5100547;27;20455;-76
2023/09/06 13:37:26;;;;;;;;;;;;;;;;;;5119955;27;20017;-75
2023/09/06 13:39:53;;;;;;;;;;;;;;;;;;5138503;27;19919;-76
2023/09/06 13:42:19;;;;;;;;;;;;;;;;;;5137191;27;19918;-76
2023/09/06 13:44:46;;;;;;;;;;;;;;;;;;5136368;27;19925;-76
2023/09/06 13:47:16;;;;;;;;;;;;;;;;;;5136408;27;20316;-76
2023/09/06 13:49:42;;;;;;;;;;;;;;;;;;5119006;27;19919;-76
2023/09/06 13:52:08;;;;;;;;;;;;;;;;;;5132696;27;19919;-73
2023/09/06 13:54:34;;;;;;;;;;;;;;;;;;5118833;27;20257;-73
2023/09/06 13:57:00;;;;;;;;;;;;;;;;;;5138142;27;19919;-75
2023/09/06 13:59:26;;;;;;;;;;;;;;;;;;5131502;27;20233;-74
2023/09/06 14:01:52;;;;;;;;;;;;;;;;;;5137714;27;20279;-75
2023/09/06 14:04:19;;;;;;;;;;;;;;;;;;5137150;27;19919;-75
2023/09/06 14:06:45;;;;;;;;;;;;;;;;;;5124153;27;19919;-76
2023/09/06 14:09:11;;;;;;;;;;;;;;;;;;5116744;27;19924;-75
2023/09/06 14:11:37;;;;;;;;;;;;;;;;;;5136863;27;19923;-76
2023/09/06 14:14:05;;;;;;;;;;;;;;;;;;5129030;27;19920;-75
2023/09/06 14:16:31;;;;;;;;;;;;;;;;;;5119349;27;19980;-77
2023/09/06 14:18:57;;;;;;;;;;;;;;;;;;5119829;27;19975;-74
2023/09/06 14:21:23;;;;;;;;;;;;;;;;;;5137091;27;19919;-74
2023/09/06 14:23:49;;;;;;;;;;;;;;;;;;5119524;27;19919;-74
2023/09/06 14:26:15;;;;;;;;;;;;;;;;;;5136643;27;19918;-77
2023/09/06 14:28:41;;;;;;;;;;;;;;;;;;5136502;27;19922;-74
2023/09/06 14:31:07;;;;;;;;;;;;;;;;;;5137254;27;19919;-74
2023/09/06 14:33:33;;;;;;;;;;;;;;;;;;5136870;27;19966;-74
2023/09/06 14:35:59;;;;;;;;;;;;;;;;;;5136971;27;19919;-74
2023/09/06 14:38:26;;;;;;;;;;;;;;;;;;5136710;27;20003;-74
2023/09/06 14:40:52;;;;;;;;;;;;;;;;;;5133887;27;20367;-74
2023/09/06 14:43:19;;;;;;;;;;;;;;;;;;5118090;27;19923;-74
2023/09/06 14:45:45;;;;;;;;;;;;;;;;;;5130375;27;19919;-76
2023/09/06 14:48:11;;;;;;;;;;;;;;;;;;5115966;27;20340;-80
2023/09/06 14:50:37;;;;;;;;;;;;;;;;;;5121771;27;20006;-74
2023/09/06 14:53:03;;;;;;;;;;;;;;;;;;5126198;27;19923;-74
2023/09/06 14:55:29;;;;;;;;;;;;;;;;;;5136448;27;20017;-74
2023/09/06 14:57:55;;;;;;;;;;;;;;;;;;5136219;27;20026;-74
2023/09/06 15:00:22;;;;;;;;;;;;;;;;;;5153814;27;20380;-74
2023/09/06 15:02:48;;;;;;;;;;;;;;;;;;5133046;27;20304;-75
2023/09/06 15:05:13;;;;;;;;;;;;;;;;;;5135491;27;19926;-78
2023/09/06 15:07:39;;;;;;;;;;;;;;;;;;5136406;27;19919;-76
2023/09/06 15:10:06;;;;;;;;;;;;;;;;;;5135977;27;19918;-75
2023/09/06 15:12:32;;;;;;;;;;;;;;;;;;5135647;27;20394;-75
2023/09/06 15:14:58;;;;;;;;;;;;;;;;;;5129098;27;20346;-75
2023/09/06 15:17:24;;;;;;;;;;;;;;;;;;5115610;27;19920;-75
2023/09/06 15:19:50;;;;;;;;;;;;;;;;;;5115522;27;19920;-75
2023/09/06 15:22:17;;;;;;;;;;;;;;;;;;5132680;27;19918;-77
2023/09/06 15:24:43;;;;;;;;;;;;;;;;;;5115247;27;19927;-75
2023/09/06 15:27:08;;;;;;;;;;;;;;;;;;5105578;27;19927;-75
2023/09/06 15:29:36;;;;;;;;;;;;;;;;;;5097413;27;19919;-75
2023/09/06 15:32:02;;;;;;;;;;;;;;;;;;5115399;27;19919;-76
2023/09/06 15:34:28;;;;;;;;;;;;;;;;;;5126774;27;19926;-76
2023/09/06 15:36:54;;;;;;;;;;;;;;;;;;5154428;27;19919;-74
2023/09/06 15:39:20;;;;;;;;;;;;;;;;;;5135609;27;19919;-75
2023/09/06 15:41:46;;;;;;;;;;;;;;;;;;5136045;27;19919;-74
2023/09/06 15:44:13;;;;;;;;;;;;;;;;;;5116865;27;20003;-74
2023/09/06 15:46:39;;;;;;;;;;;;;;;;;;5123442;27;20431;-74
2023/09/06 15:49:05;;;;;;;;;;;;;;;;;;5116762;27;19950;-74
2023/09/06 15:51:31;;;;;;;;;;;;;;;;;;5142956;27;19976;-74
2023/09/06 15:53:57;;;;;;;;;;;;;;;;;;5135947;27;19926;-74
2023/09/06 15:56:23;;;;;;;;;;;;;;;;;;5135389;27;19923;-74
2023/09/06 15:58:49;;;;;;;;;;;;;;;;;;5134931;27;19962;-74
2023/09/06 16:01:16;;;;;;;;;;;;;;;;;;5127082;27;19919;-75
2023/09/06 16:03:42;;;;;;;;;;;;;;;;;;5132654;27;19919;-75
2023/09/06 16:06:08;;;;;;;;;;;;;;;;;;5117385;27;19930;-77
2023/09/06 16:08:34;;;;;;;;;;;;;;;;;;5119665;28;19968;-79
2023/09/06 16:11:00;;;;;;;;;;;;;;;;;;5102237;28;19923;-80
2023/09/06 16:13:26;;;;;;;;;;;;;;;;;;5126757;27;19919;-80
2023/09/06 16:15:51;;;;;;;;;;;;;;;;;;5107378;27;19919;-81
2023/09/06 16:18:17;;;;;;;;;;;;;;;;;;5112755;27;19998;-80
2023/09/06 16:20:43;;;;;;;;;;;;;;;;;;5114780;27;19927;-78
2023/09/06 16:23:09;;;;;;;;;;;;;;;;;;5132786;27;19919;-78
2023/09/06 16:25:35;;;;;;;;;;;;;;;;;;5132275;27;19920;-78
2023/09/06 16:28:01;;;;;;;;;;;;;;;;;;5131817;27;19923;-79
2023/09/06 16:30:27;;;;;;;;;;;;;;;;;;5130421;27;19923;-77
2023/09/06 16:32:53;;;;;;;;;;;;;;;;;;5129235;27;19926;-79
2023/09/06 16:35:19;;;;;;;;;;;;;;;;;;5121601;27;20364;-79
2023/09/06 16:37:50;;;;;;;;;;;;;;;;;;5119871;27;19919;-82
2023/09/06 16:40:23;;;;;;;;;;;;;;;;;;5113262;28;19924;-78